createdAt,value
2019-01-05T00:01:31.439Z,14.13
2019-01-05T00:04:09.885Z,11.27
2019-01-05T00:06:50.845Z,9.77
2019-01-05T00:09:20.569Z,11.87
2019-01-05T00:12:07.229Z,10.33
2019-01-05T00:14:58.264Z,11.27
2019-01-05T00:17:37.281Z,10.63
2019-01-05T00:20:13.170Z,10.60
2019-01-05T00:22:51.984Z,13.40
2019-01-05T00:25:22.085Z,6.10
2019-01-05T00:27:52.373Z,11.43
2019-01-05T00:30:31.339Z,9.93
2019-01-05T00:33:01.327Z,11.60
2019-01-05T00:35:38.327Z,9.90
2019-01-05T00:38:09.220Z,12.80
2019-01-05T00:40:39.433Z,12.87
2019-01-05T00:43:19.070Z,14.73
2019-01-05T00:46:05.983Z,12.63
2019-01-05T00:48:51.194Z,11.00
2019-01-05T00:51:31.789Z,14.77
2019-01-05T00:54:06.079Z,14.33
2019-01-05T00:56:52.974Z,15.80
2019-01-05T00:59:33.485Z,11.40
2019-01-05T01:02:09.375Z,10.60
2019-01-05T01:04:42.398Z,11.67
2019-01-05T01:07:18.580Z,11.40
2019-01-05T01:09:51.629Z,10.63
2019-01-05T01:12:27.502Z,9.17
2019-01-05T01:15:13.807Z,13.43
2019-01-05T01:17:55.498Z,14.63
2019-01-05T01:20:25.477Z,12.20
2019-01-05T01:22:58.362Z,11.50
2019-01-05T01:25:34.115Z,11.37
2019-01-05T01:28:04.228Z,9.00
2019-01-05T01:30:49.951Z,13.47
2019-01-05T01:33:20.173Z,13.83
2019-01-05T01:36:06.701Z,13.00
2019-01-05T01:38:38.005Z,15.47
2019-01-05T01:41:24.636Z,14.00
2019-01-05T01:43:57.446Z,12.53
2019-01-05T01:46:36.620Z,10.93
2019-01-05T01:49:15.847Z,15.47
2019-01-05T01:51:58.386Z,15.07
2019-01-05T01:54:46.473Z,12.13
2019-01-05T01:57:30.960Z,11.83
2019-01-05T02:00:12.446Z,14.40
2019-01-05T02:02:45.213Z,12.00
2019-01-05T02:05:15.169Z,14.23
2019-01-05T02:08:03.636Z,9.07
2019-01-05T02:10:45.466Z,8.60
2019-01-05T02:13:36.469Z,10.73
2019-01-05T02:16:10.548Z,12.23
2019-01-05T02:22:09.463Z,13.17
2019-01-05T02:25:08.013Z,12.90
2019-01-05T02:28:03.385Z,14.17
2019-01-05T02:30:38.024Z,10.30
2019-01-05T02:33:15.543Z,11.47
2019-01-05T02:35:53.247Z,11.93
2019-01-05T02:38:33.425Z,10.30
2019-01-05T02:41:39.646Z,10.10
2019-01-05T02:44:16.723Z,11.20
2019-01-05T02:46:53.880Z,10.73
2019-01-05T02:49:45.137Z,13.90
2019-01-05T02:52:22.123Z,7.63
2019-01-05T02:55:13.070Z,9.00
2019-01-05T02:58:04.242Z,8.80
2019-01-05T03:00:38.523Z,7.90
2019-01-05T03:03:18.634Z,8.30
2019-01-05T03:06:17.057Z,10.50
2019-01-05T03:09:00.369Z,7.70
2019-01-05T03:11:51.227Z,9.10
2019-01-05T03:14:39.995Z,6.87
2019-01-05T03:17:23.379Z,6.67
2019-01-05T03:20:14.605Z,8.30
2019-01-05T03:22:48.534Z,6.67
2019-01-05T03:25:49.065Z,7.70
2019-01-05T03:28:37.137Z,8.83
2019-01-05T03:31:20.447Z,6.87
2019-01-05T03:34:08.174Z,6.97
2019-01-05T03:37:02.316Z,5.60
2019-01-05T03:39:40.043Z,8.27
2019-01-05T03:42:38.978Z,4.97
2019-01-05T03:45:29.574Z,8.13
2019-01-05T03:48:35.357Z,6.80
2019-01-05T03:51:35.382Z,10.80
2019-01-05T03:54:35.667Z,8.37
2019-01-05T03:57:23.643Z,10.03
2019-01-05T04:00:06.845Z,7.37
2019-01-05T04:03:08.658Z,8.33
2019-01-05T04:06:17.554Z,4.87
2019-01-05T04:09:20.945Z,8.63
2019-01-05T04:12:07.259Z,7.07
2019-01-05T04:14:47.478Z,7.60
2019-01-05T04:17:18.960Z,8.23
2019-01-05T04:20:12.951Z,9.13
2019-01-05T04:23:12.476Z,7.37
2019-01-05T04:26:04.837Z,8.00
2019-01-05T04:28:54.092Z,8.23
2019-01-05T04:31:40.514Z,7.80
2019-01-05T04:34:42.035Z,7.73
2019-01-05T04:37:13.520Z,7.23
2019-01-05T04:39:44.982Z,8.13
2019-01-05T04:42:28.170Z,7.47
2019-01-05T04:45:15.656Z,8.73
2019-01-05T04:47:58.926Z,6.83
2019-01-05T04:50:57.425Z,6.40
2019-01-05T04:53:54.558Z,8.27
2019-01-05T04:56:35.197Z,7.07
2019-01-05T04:59:21.715Z,8.57
2019-01-05T05:02:08.170Z,9.97
2019-01-05T05:04:42.172Z,9.97
2019-01-05T05:07:16.370Z,8.57
2019-01-05T05:10:11.565Z,8.73
2019-01-05T05:13:10.379Z,7.70
2019-01-05T05:16:01.346Z,7.97
2019-01-05T05:18:59.727Z,6.00
2019-01-05T05:21:47.822Z,7.13
2019-01-05T05:24:43.322Z,7.47
2019-01-05T05:27:33.797Z,7.67
2019-01-05T05:30:23.041Z,7.10
2019-01-05T05:33:03.196Z,8.60
2019-01-05T05:35:54.118Z,7.13
2019-01-05T05:38:28.456Z,7.30
2019-01-05T05:41:08.369Z,10.07
2019-01-05T05:44:13.242Z,8.93
2019-01-05T05:47:15.075Z,7.63
2019-01-05T05:50:13.873Z,9.60
2019-01-05T05:53:04.508Z,7.73
2019-01-05T05:55:52.257Z,7.63
2019-01-05T05:58:26.373Z,12.17
2019-01-05T06:01:17.170Z,8.60
2019-01-05T06:04:05.492Z,11.03
2019-01-05T06:07:04.168Z,6.33
2019-01-05T06:09:53.597Z,6.30
2019-01-05T06:12:27.901Z,9.03
2019-01-05T06:15:02.070Z,6.00
2019-01-05T06:17:36.007Z,7.10
2019-01-05T06:20:10.130Z,9.27
2019-01-05T06:23:02.381Z,5.47
2019-01-05T06:25:33.870Z,11.17
2019-01-05T06:28:33.982Z,6.63
2019-01-05T06:31:20.474Z,9.13
2019-01-05T06:33:54.692Z,9.83
2019-01-05T06:36:50.125Z,7.37
2019-01-05T06:39:42.482Z,9.17
2019-01-05T06:42:16.786Z,9.43
2019-01-05T06:45:21.378Z,12.63
2019-01-05T06:48:21.448Z,6.70
2019-01-05T06:51:26.070Z,7.47
2019-01-05T06:53:57.520Z,8.47
2019-01-05T06:56:49.558Z,7.53
2019-01-05T06:59:37.836Z,7.07
2019-01-05T07:02:11.849Z,6.07
2019-01-05T07:04:43.333Z,6.13
2019-01-05T07:07:40.578Z,6.70
2019-01-05T07:10:30.063Z,7.33
2019-01-05T07:13:21.256Z,9.07
2019-01-05T07:16:25.797Z,8.70
2019-01-05T07:19:23.230Z,7.37
2019-01-05T07:22:06.734Z,7.90
2019-01-05T07:24:53.419Z,6.27
2019-01-05T07:27:44.749Z,5.60
2019-01-05T07:30:48.224Z,7.10
2019-01-05T07:33:19.670Z,8.03
2019-01-05T07:35:51.162Z,6.77
2019-01-05T07:38:53.822Z,6.67
2019-01-05T07:41:37.298Z,5.43
2019-01-05T07:44:42.106Z,9.23
2019-01-05T07:47:47.110Z,8.83
2019-01-05T07:50:36.685Z,6.03
2019-01-05T07:53:10.825Z,9.57
2019-01-05T07:56:01.593Z,9.03
2019-01-05T07:58:38.776Z,8.40
2019-01-05T08:01:28.278Z,6.93
2019-01-05T08:04:02.452Z,6.93
2019-01-05T08:06:39.660Z,8.70
2019-01-05T08:09:29.253Z,4.50
2019-01-05T08:12:15.533Z,7.67
2019-01-05T08:14:58.466Z,6.33
2019-01-05T08:17:55.504Z,7.00
2019-01-05T08:20:58.821Z,4.47
2019-01-05T08:23:45.050Z,3.93
2019-01-05T08:26:33.129Z,7.87
2019-01-05T08:29:19.534Z,6.20
2019-01-05T08:31:53.948Z,5.83
2019-01-05T08:34:42.164Z,7.27
2019-01-05T08:37:36.606Z,5.80
2019-01-05T08:40:10.813Z,6.37
2019-01-05T08:43:02.169Z,6.23
2019-01-05T08:45:53.821Z,5.80
2019-01-05T08:48:34.285Z,5.73
2019-01-05T08:51:22.158Z,4.80
2019-01-05T08:54:08.836Z,7.03
2019-01-05T08:57:12.306Z,5.50
2019-01-05T09:00:03.208Z,5.00
2019-01-05T09:02:46.504Z,4.87
2019-01-05T09:05:32.731Z,5.53
2019-01-05T09:08:22.156Z,5.27
2019-01-05T09:11:11.104Z,5.07
2019-01-05T09:14:11.654Z,5.70
2019-01-05T09:17:03.585Z,6.80
2019-01-05T09:19:35.079Z,4.97
2019-01-05T09:22:15.315Z,5.97
2019-01-05T09:25:04.856Z,4.50
2019-01-05T09:27:45.442Z,5.03
2019-01-05T09:30:16.898Z,5.80
2019-01-05T09:33:04.896Z,4.70
2019-01-05T09:35:58.436Z,6.10
2019-01-05T09:38:47.909Z,4.43
2019-01-05T09:41:46.562Z,5.87
2019-01-05T09:44:32.580Z,5.03
2019-01-05T09:47:16.139Z,5.67
2019-01-05T09:50:09.497Z,6.58
2019-01-05T09:52:43.920Z,7.00
2019-01-05T09:55:30.643Z,5.23
2019-01-05T09:58:14.364Z,5.90
2019-01-05T10:01:04.115Z,6.37
2019-01-05T10:03:50.689Z,5.33
2019-01-05T10:06:42.967Z,4.97
2019-01-05T10:09:42.837Z,4.70
2019-01-05T10:12:23.143Z,5.07
2019-01-05T10:15:20.161Z,5.03
2019-01-05T10:18:06.566Z,5.13
2019-01-05T10:21:06.994Z,5.10
2019-01-05T10:23:44.529Z,6.10
2019-01-05T10:26:32.697Z,4.17
2019-01-05T10:29:10.002Z,5.70
2019-01-05T10:31:53.358Z,6.43
2019-01-05T10:34:36.711Z,6.33
2019-01-05T10:37:26.160Z,4.43
2019-01-05T10:40:20.309Z,5.50
2019-01-05T10:43:10.989Z,4.20
2019-01-05T10:46:04.985Z,6.23
2019-01-05T10:48:45.467Z,5.47
2019-01-05T10:51:16.954Z,6.20
2019-01-05T10:54:09.322Z,5.57
2019-01-05T10:57:02.920Z,5.27
2019-01-05T10:59:43.312Z,4.13
2019-01-05T11:02:24.324Z,4.70
2019-01-05T11:04:58.738Z,6.03
2019-01-05T11:07:59.821Z,4.87
2019-01-05T11:10:42.438Z,5.97
2019-01-05T11:13:47.166Z,5.70
2019-01-05T11:16:40.965Z,5.27
2019-01-05T11:19:39.721Z,5.77
2019-01-05T11:22:35.633Z,4.27
2019-01-05T11:25:25.461Z,4.87
2019-01-05T11:28:14.914Z,5.30
2019-01-05T11:31:02.515Z,7.20
2019-01-05T11:33:33.966Z,5.23
2019-01-05T11:36:11.365Z,5.10
2019-01-05T11:39:08.826Z,5.90
2019-01-05T11:41:48.856Z,4.57
2019-01-05T11:44:29.065Z,6.73
2019-01-05T11:47:23.204Z,5.00
2019-01-05T11:50:03.454Z,5.10
2019-01-05T11:53:08.294Z,5.20
2019-01-05T11:56:03.334Z,4.40
2019-01-05T11:58:40.423Z,4.63
2019-01-05T12:01:14.657Z,4.13
2019-01-05T12:04:06.938Z,4.23
2019-01-05T12:07:01.188Z,3.80
2019-01-05T12:09:51.653Z,4.33
2019-01-05T12:12:39.493Z,4.13
2019-01-05T12:15:16.849Z,4.17
2019-01-05T12:18:19.522Z,4.30
2019-01-05T12:21:15.323Z,3.77
2019-01-05T12:24:03.438Z,3.13
2019-01-05T12:26:53.208Z,3.77
2019-01-05T12:29:57.965Z,4.13
2019-01-05T12:32:54.310Z,3.90
2019-01-05T12:35:54.465Z,4.13
2019-01-05T12:38:42.113Z,3.80
2019-01-05T12:41:34.429Z,3.20
2019-01-05T12:44:30.230Z,4.27
2019-01-05T12:47:07.683Z,4.23
2019-01-05T12:50:01.456Z,3.90
2019-01-05T12:52:38.435Z,3.80
2019-01-05T12:55:32.245Z,4.07
2019-01-05T12:58:18.692Z,4.33
2019-01-05T13:01:17.316Z,4.33
2019-01-05T13:04:07.908Z,4.70
2019-01-05T13:06:45.137Z,4.20
2019-01-05T13:09:37.491Z,3.63
2019-01-05T13:12:31.354Z,4.37
2019-01-05T13:15:02.802Z,3.90
2019-01-05T13:17:49.238Z,4.33
2019-01-05T13:20:52.421Z,3.53
2019-01-05T13:23:57.930Z,3.97
2019-01-05T13:26:47.433Z,4.50
2019-01-05T13:29:33.786Z,5.10
2019-01-05T13:32:28.785Z,4.10
2019-01-05T13:35:15.262Z,4.43
2019-01-05T13:37:46.710Z,9.53
2019-01-05T13:40:30.344Z,4.27
2019-01-05T13:43:10.807Z,4.73
2019-01-05T13:45:42.426Z,7.83
2019-01-05T13:48:19.609Z,8.33
2019-01-05T13:50:56.669Z,3.90
2019-01-05T13:53:47.235Z,4.30
2019-01-05T13:56:20.145Z,7.57
2019-01-05T13:58:50.096Z,8.87
2019-01-05T14:01:35.121Z,10.97
2019-01-05T14:04:17.421Z,7.17
2019-01-05T14:07:03.727Z,5.33
2019-01-05T14:09:36.448Z,4.23
2019-01-05T14:12:12.249Z,3.70
2019-01-05T14:14:50.849Z,3.97
2019-01-05T14:17:29.731Z,5.10
2019-01-05T14:20:16.279Z,3.27
2019-01-05T14:22:52.004Z,3.53
2019-01-05T14:25:24.538Z,4.17
2019-01-05T14:28:00.662Z,3.90
2019-01-05T14:30:42.719Z,4.20
2019-01-05T14:33:15.494Z,3.57
2019-01-05T14:35:45.505Z,3.27
2019-01-05T14:38:21.175Z,4.10
2019-01-05T14:40:56.957Z,3.80
2019-01-05T14:43:39.303Z,4.13
2019-01-05T14:46:21.353Z,3.87
2019-01-05T14:49:03.849Z,4.63
2019-01-05T14:51:40.833Z,4.57
2019-01-05T14:54:16.658Z,4.83
2019-01-05T14:57:02.906Z,4.90
2019-01-05T14:59:38.677Z,5.10
2019-01-05T15:02:08.581Z,3.80
2019-01-05T15:04:38.600Z,4.67
2019-01-05T15:07:08.585Z,4.07
2019-01-05T15:09:54.678Z,4.30
2019-01-05T15:12:30.519Z,4.33
2019-01-05T15:15:09.137Z,4.60
2019-01-05T15:17:57.565Z,4.07
2019-01-05T15:20:43.595Z,3.90
2019-01-05T15:23:13.497Z,4.33
2019-01-05T15:25:49.446Z,3.63
2019-01-05T15:28:34.674Z,4.50
2019-01-05T15:31:22.800Z,5.20
2019-01-05T15:33:55.354Z,4.83
2019-01-05T15:36:43.458Z,4.60
2019-01-05T15:39:29.932Z,4.87
2019-01-05T15:42:16.257Z,4.77
2019-01-05T15:45:03.082Z,5.40
2019-01-05T15:47:35.425Z,4.33
2019-01-05T15:50:21.979Z,7.13
2019-01-05T15:53:08.273Z,6.47
2019-01-05T15:55:53.379Z,4.93
2019-01-05T15:58:26.131Z,6.30
2019-01-05T16:01:08.083Z,7.70
2019-01-05T16:03:43.794Z,6.70
2019-01-05T16:06:22.559Z,6.80
2019-01-05T16:08:58.017Z,6.67
2019-01-05T16:11:33.558Z,5.77
2019-01-05T16:14:19.866Z,3.37
2019-01-05T16:16:52.605Z,4.47
2019-01-05T16:19:28.316Z,4.10
2019-01-05T16:22:01.173Z,5.27
2019-01-05T16:24:34.130Z,5.40
2019-01-05T16:27:04.070Z,4.30
2019-01-05T16:29:39.679Z,3.70
2019-01-05T16:32:25.909Z,6.03
2019-01-05T16:35:08.184Z,5.17
2019-01-05T16:37:50.390Z,6.13
2019-01-05T16:40:23.282Z,4.17
2019-01-05T16:42:55.838Z,5.03
2019-01-05T16:45:25.821Z,6.00
2019-01-05T16:48:13.665Z,5.63
2019-01-05T16:50:46.555Z,4.37
2019-01-05T16:53:25.398Z,5.00
2019-01-05T16:56:10.630Z,3.93
2019-01-05T16:58:46.643Z,5.03
2019-01-05T17:01:22.609Z,5.20
2019-01-05T17:04:11.648Z,5.27
2019-01-05T17:06:48.530Z,5.07
2019-01-05T17:09:18.515Z,4.50
2019-01-05T17:11:51.298Z,5.63
2019-01-05T17:14:21.205Z,5.97
2019-01-05T17:17:07.712Z,3.43
2019-01-05T17:22:23.203Z,4.20
2019-01-05T17:25:09.459Z,4.90
2019-01-05T17:27:58.011Z,5.23
2019-01-05T17:30:30.823Z,5.57
2019-01-05T17:33:17.133Z,5.50
2019-01-05T17:35:49.917Z,4.80
2019-01-05T17:38:31.744Z,5.07
2019-01-05T17:41:10.574Z,5.93
2019-01-05T17:43:43.282Z,6.77
2019-01-05T17:46:29.399Z,5.40
2019-01-05T17:49:08.555Z,5.37
2019-01-05T17:51:47.282Z,5.87
2019-01-05T17:54:29.575Z,4.27
2019-01-05T17:57:02.209Z,8.40
2019-01-05T17:59:37.774Z,7.97
2019-01-05T18:02:23.908Z,7.40
2019-01-05T18:05:05.761Z,7.13
2019-01-05T18:07:44.690Z,5.20
2019-01-05T18:10:20.819Z,7.90
2019-01-05T18:13:06.807Z,5.87
2019-01-05T18:15:52.157Z,7.87
2019-01-05T18:18:22.106Z,7.77
2019-01-05T18:21:00.698Z,6.80
2019-01-05T18:23:47.286Z,7.63
2019-01-05T18:26:33.420Z,5.93
2019-01-05T18:29:09.325Z,6.47
2019-01-05T18:31:54.231Z,6.73
2019-01-05T18:34:26.995Z,4.20
2019-01-05T18:37:05.774Z,6.10
2019-01-05T18:39:38.499Z,7.80
2019-01-05T18:42:12.748Z,6.63
2019-01-05T18:44:59.400Z,7.97
2019-01-05T18:47:31.989Z,8.07
2019-01-05T18:50:04.439Z,8.23
2019-01-05T18:52:46.271Z,7.30
2019-01-05T18:55:32.958Z,6.03
2019-01-05T18:58:02.869Z,8.37
2019-01-05T19:00:35.916Z,8.87
2019-01-05T19:03:22.238Z,6.23
2019-01-05T19:06:04.294Z,7.43
2019-01-05T19:08:50.300Z,6.20
2019-01-05T19:11:23.029Z,9.00
2019-01-05T19:14:01.944Z,7.87
2019-01-05T19:16:31.922Z,7.00
2019-01-05T19:19:01.940Z,8.00
2019-01-05T19:21:40.759Z,10.38
2019-01-05T19:24:27.214Z,8.80
2019-01-05T19:27:15.382Z,8.40
2019-01-05T19:29:54.696Z,5.43
2019-01-05T19:32:42.931Z,8.07
2019-01-05T19:35:35.553Z,7.97
2019-01-05T19:38:22.755Z,7.87
2019-01-05T19:41:09.301Z,9.03
2019-01-05T19:43:55.391Z,6.13
2019-01-05T19:46:31.538Z,7.77
2019-01-05T19:49:16.589Z,7.00
2019-01-05T19:52:01.713Z,7.63
2019-01-05T19:54:34.773Z,6.97
2019-01-05T19:57:13.878Z,4.60
2019-01-05T19:59:58.874Z,8.50
2019-01-05T20:02:31.370Z,8.37
2019-01-05T20:05:04.381Z,8.30
2019-01-05T20:07:34.403Z,9.17
2019-01-05T20:10:20.884Z,9.40
2019-01-05T20:13:07.031Z,7.93
2019-01-05T20:15:53.361Z,9.93
2019-01-05T20:18:23.299Z,4.53
2019-01-05T20:20:53.205Z,5.80
2019-01-05T20:23:32.214Z,9.93
2019-01-05T20:26:04.966Z,6.97
2019-01-05T20:28:44.049Z,6.33
2019-01-05T20:31:19.797Z,6.73
2019-01-05T20:33:52.571Z,5.80
2019-01-05T20:36:22.548Z,6.40
2019-01-05T20:39:04.252Z,8.83
2019-01-05T20:41:34.157Z,10.73
2019-01-05T20:44:04.181Z,10.67
2019-01-05T20:46:34.153Z,7.03
2019-01-05T20:49:10.145Z,8.27
2019-01-05T20:51:42.842Z,8.33
2019-01-05T20:54:28.809Z,6.23
2019-01-05T20:57:11.084Z,9.67
2019-01-05T20:59:52.809Z,7.17
2019-01-05T21:02:40.858Z,7.30
2019-01-05T21:05:10.841Z,7.00
2019-01-05T21:07:57.432Z,9.23
2019-01-05T21:10:43.685Z,5.57
2019-01-05T21:13:30.390Z,9.07
2019-01-05T21:16:12.351Z,8.33
2019-01-05T21:18:48.100Z,7.07
2019-01-05T21:21:21.021Z,8.87
2019-01-05T21:24:05.697Z,6.27
2019-01-05T21:26:51.975Z,8.83
2019-01-05T21:29:27.752Z,9.13
2019-01-05T21:32:14.003Z,8.30
2019-01-05T21:35:00.805Z,6.23
2019-01-05T21:37:36.458Z,6.77
2019-01-05T21:40:20.511Z,8.90
2019-01-05T21:42:50.417Z,8.23
2019-01-05T21:45:22.990Z,8.23
2019-01-05T21:47:55.670Z,9.57
2019-01-05T21:50:37.694Z,8.07
2019-01-05T21:53:23.958Z,6.90
2019-01-05T21:55:53.942Z,5.63
2019-01-05T21:58:40.485Z,7.63
2019-01-05T22:01:26.566Z,6.93
2019-01-05T22:04:13.262Z,5.50
2019-01-05T22:06:59.342Z,7.13
2019-01-05T22:09:29.354Z,7.03
2019-01-05T22:12:08.501Z,6.30
2019-01-05T22:14:41.242Z,5.90
2019-01-05T22:17:17.531Z,4.67
2019-01-05T22:19:47.547Z,4.57
2019-01-05T22:22:20.242Z,5.70
2019-01-05T22:25:06.705Z,5.73
2019-01-05T22:27:52.929Z,7.13
2019-01-05T22:30:31.921Z,4.57
2019-01-05T22:33:16.722Z,4.67
2019-01-05T22:35:55.274Z,6.37
2019-01-05T22:38:30.617Z,4.70
2019-01-05T22:41:16.799Z,5.63
2019-01-05T22:43:49.295Z,6.03
2019-01-05T22:46:19.243Z,5.37
2019-01-05T22:48:54.707Z,5.67
2019-01-05T22:51:33.430Z,4.63
2019-01-05T22:54:03.409Z,4.87
2019-01-05T22:56:50.079Z,5.73
2019-01-05T22:59:36.459Z,6.70
2019-01-05T23:02:23.111Z,5.93
2019-01-05T23:04:53.322Z,6.60
2019-01-05T23:07:29.237Z,6.43
2019-01-05T23:09:59.215Z,6.93
2019-01-05T23:12:31.999Z,5.47
2019-01-05T23:15:04.923Z,5.00
2019-01-05T23:17:43.824Z,5.83
2019-01-05T23:20:30.461Z,7.63
2019-01-05T23:23:12.150Z,5.30
2019-01-05T23:25:48.167Z,4.83
2019-01-05T23:28:21.122Z,6.50
2019-01-05T23:30:54.271Z,8.27
2019-01-05T23:33:42.102Z,5.40
2019-01-05T23:36:14.555Z,7.50
2019-01-05T23:38:59.530Z,6.70
2019-01-05T23:41:35.034Z,7.57
2019-01-05T23:44:20.311Z,8.73
2019-01-05T23:46:56.065Z,8.50
2019-01-05T23:49:46.734Z,4.00
2019-01-05T23:52:35.122Z,5.60
2019-01-05T23:55:11.293Z,7.73
2019-01-05T23:57:41.314Z,8.57
